sensor_id;sensor_type;location;lat;lon;timestamp;P1;durP1;ratioP1;P2;durP2;ratioP2
81701;SDS011;71115;52.150;4.510;2023-09-18T00:02:19;37.55;;;21.80;;
81701;SDS011;71115;52.150;4.510;2023-09-18T00:04:45;35.63;;;20.73;;
81701;SDS011;71115;52.150;4.510;2023-09-18T00:07:11;28.23;;;17.10;;
81701;SDS011;71115;52.150;4.510;2023-09-18T00:09:37;39.15;;;22.30;;
81701;SDS011;71115;52.150;4.510;2023-09-18T00:12:03;40.03;;;18.23;;
81701;SDS011;71115;52.150;4.510;2023-09-18T00:14:29;26.35;;;16.60;;
81701;SDS011;71115;52.150;4.510;2023-09-18T00:16:55;38.28;;;21.17;;
81701;SDS011;71115;52.150;4.510;2023-09-18T00:19:22;34.13;;;20.25;;
81701;SDS011;71115;52.150;4.510;2023-09-18T00:24:15;32.78;;;19.27;;
81701;SDS011;71115;52.150;4.510;2023-09-18T00:26:42;36.28;;;19.17;;
81701;SDS011;71115;52.150;4.510;2023-09-18T00:29:08;32.00;;;19.33;;
81701;SDS011;71115;52.150;4.510;2023-09-18T00:31:34;33.60;;;20.05;;
81701;SDS011;71115;52.150;4.510;2023-09-18T00:34:00;33.53;;;20.73;;
81701;SDS011;71115;52.150;4.510;2023-09-18T00:36:26;36.63;;;21.00;;
81701;SDS011;71115;52.150;4.510;2023-09-18T00:38:52;29.63;;;19.25;;
81701;SDS011;71115;52.150;4.510;2023-09-18T00:41:18;37.38;;;22.08;;
81701;SDS011;71115;52.150;4.510;2023-09-18T00:43:44;33.28;;;20.58;;
81701;SDS011;71115;52.150;4.510;2023-09-18T00:46:10;34.75;;;20.17;;
81701;SDS011;71115;52.150;4.510;2023-09-18T00:48:36;30.15;;;18.25;;
81701;SDS011;71115;52.150;4.510;2023-09-18T00:51:02;36.75;;;20.33;;
81701;SDS011;71115;52.150;4.510;2023-09-18T00:53:28;33.33;;;21.75;;
81701;SDS011;71115;52.150;4.510;2023-09-18T00:55:55;29.70;;;18.58;;
81701;SDS011;71115;52.150;4.510;2023-09-18T00:58:22;31.42;;;19.13;;
81701;SDS011;71115;52.150;4.510;2023-09-18T01:00:49;37.05;;;20.27;;
81701;SDS011;71115;52.150;4.510;2023-09-18T01:03:16;31.13;;;19.20;;
81701;SDS011;71115;52.150;4.510;2023-09-18T01:05:43;34.13;;;20.75;;
81701;SDS011;71115;52.150;4.510;2023-09-18T01:08:09;41.05;;;21.55;;
81701;SDS011;71115;52.150;4.510;2023-09-18T01:10:43;34.80;;;19.90;;
81701;SDS011;71115;52.150;4.510;2023-09-18T01:13:14;30.73;;;19.27;;
81701;SDS011;71115;52.150;4.510;2023-09-18T01:15:53;30.48;;;18.45;;
81701;SDS011;71115;52.150;4.510;2023-09-18T01:18:20;31.25;;;20.38;;
81701;SDS011;71115;52.150;4.510;2023-09-18T01:20:46;25.88;;;18.85;;
81701;SDS011;71115;52.150;4.510;2023-09-18T01:23:12;20.58;;;12.45;;
81701;SDS011;71115;52.150;4.510;2023-09-18T01:28:04;26.77;;;16.67;;
81701;SDS011;71115;52.150;4.510;2023-09-18T01:30:30;28.77;;;18.30;;
81701;SDS011;71115;52.150;4.510;2023-09-18T01:32:57;31.05;;;19.90;;
81701;SDS011;71115;52.150;4.510;2023-09-18T01:35:25;29.48;;;18.73;;
81701;SDS011;71115;52.150;4.510;2023-09-18T01:37:55;28.17;;;18.60;;
81701;SDS011;71115;52.150;4.510;2023-09-18T01:40:22;37.08;;;19.27;;
81701;SDS011;71115;52.150;4.510;2023-09-18T01:42:49;30.80;;;20.17;;
81701;SDS011;71115;52.150;4.510;2023-09-18T01:45:15;31.73;;;19.83;;
81701;SDS011;71115;52.150;4.510;2023-09-18T01:47:41;34.03;;;19.85;;
81701;SDS011;71115;52.150;4.510;2023-09-18T01:50:07;31.10;;;20.17;;
81701;SDS011;71115;52.150;4.510;2023-09-18T01:52:33;29.88;;;19.45;;
81701;SDS011;71115;52.150;4.510;2023-09-18T01:55:02;19.73;;;12.25;;
81701;SDS011;71115;52.150;4.510;2023-09-18T01:57:32;28.60;;;15.15;;
81701;SDS011;71115;52.150;4.510;2023-09-18T01:59:58;37.53;;;22.00;;
81701;SDS011;71115;52.150;4.510;2023-09-18T02:02:24;36.42;;;21.30;;
81701;SDS011;71115;52.150;4.510;2023-09-18T02:04:50;37.05;;;20.20;;
81701;SDS011;71115;52.150;4.510;2023-09-18T02:07:16;37.13;;;21.52;;
81701;SDS011;71115;52.150;4.510;2023-09-18T02:09:42;34.83;;;22.02;;
81701;SDS011;71115;52.150;4.510;2023-09-18T02:12:09;41.60;;;23.23;;
81701;SDS011;71115;52.150;4.510;2023-09-18T02:14:36;37.20;;;22.83;;
81701;SDS011;71115;52.150;4.510;2023-09-18T02:19:30;36.90;;;22.75;;
81701;SDS011;71115;52.150;4.510;2023-09-18T02:21:56;39.75;;;20.33;;
81701;SDS011;71115;52.150;4.510;2023-09-18T02:24:22;35.90;;;22.08;;
81701;SDS011;71115;52.150;4.510;2023-09-18T02:26:48;38.13;;;23.20;;
81701;SDS011;71115;52.150;4.510;2023-09-18T02:29:14;37.63;;;22.67;;
81701;SDS011;71115;52.150;4.510;2023-09-18T02:31:40;32.53;;;22.15;;
81701;SDS011;71115;52.150;4.510;2023-09-18T02:34:06;29.65;;;17.50;;
81701;SDS011;71115;52.150;4.510;2023-09-18T02:36:34;41.28;;;21.88;;
81701;SDS011;71115;52.150;4.510;2023-09-18T02:39:00;38.17;;;21.95;;
81701;SDS011;71115;52.150;4.510;2023-09-18T02:41:26;37.33;;;22.38;;
81701;SDS011;71115;52.150;4.510;2023-09-18T02:43:52;35.72;;;21.92;;
81701;SDS011;71115;52.150;4.510;2023-09-18T02:46:18;29.70;;;19.90;;
81701;SDS011;71115;52.150;4.510;2023-09-18T02:48:44;37.75;;;21.20;;
81701;SDS011;71115;52.150;4.510;2023-09-18T02:51:10;36.95;;;22.45;;
81701;SDS011;71115;52.150;4.510;2023-09-18T02:53:36;38.38;;;23.20;;
81701;SDS011;71115;52.150;4.510;2023-09-18T02:56:02;45.08;;;24.83;;
81701;SDS011;71115;52.150;4.510;2023-09-18T02:58:28;40.70;;;23.80;;
81701;SDS011;71115;52.150;4.510;2023-09-18T03:00:55;39.88;;;23.48;;
81701;SDS011;71115;52.150;4.510;2023-09-18T03:03:25;40.47;;;23.80;;
81701;SDS011;71115;52.150;4.510;2023-09-18T03:05:51;40.20;;;23.85;;
81701;SDS011;71115;52.150;4.510;2023-09-18T03:08:17;36.47;;;22.55;;
81701;SDS011;71115;52.150;4.510;2023-09-18T03:10:44;36.33;;;23.23;;
81701;SDS011;71115;52.150;4.510;2023-09-18T03:15:36;37.80;;;22.73;;
81701;SDS011;71115;52.150;4.510;2023-09-18T03:18:02;38.75;;;24.85;;
81701;SDS011;71115;52.150;4.510;2023-09-18T03:20:29;36.78;;;23.35;;
81701;SDS011;71115;52.150;4.510;2023-09-18T03:22:59;37.03;;;23.17;;
81701;SDS011;71115;52.150;4.510;2023-09-18T03:25:25;39.97;;;22.88;;
81701;SDS011;71115;52.150;4.510;2023-09-18T03:30:18;42.15;;;23.15;;
81701;SDS011;71115;52.150;4.510;2023-09-18T03:32:44;38.05;;;23.08;;
81701;SDS011;71115;52.150;4.510;2023-09-18T03:35:10;39.92;;;23.67;;
81701;SDS011;71115;52.150;4.510;2023-09-18T03:37:52;36.45;;;21.67;;
81701;SDS011;71115;52.150;4.510;2023-09-18T03:40:19;40.90;;;23.90;;
81701;SDS011;71115;52.150;4.510;2023-09-18T03:42:45;39.45;;;23.60;;
81701;SDS011;71115;52.150;4.510;2023-09-18T03:45:11;42.55;;;23.90;;
81701;SDS011;71115;52.150;4.510;2023-09-18T03:47:40;36.00;;;22.55;;
81701;SDS011;71115;52.150;4.510;2023-09-18T03:50:07;29.35;;;16.58;;
81701;SDS011;71115;52.150;4.510;2023-09-18T03:52:33;42.53;;;24.60;;
81701;SDS011;71115;52.150;4.510;2023-09-18T03:54:59;27.58;;;16.83;;
81701;SDS011;71115;52.150;4.510;2023-09-18T03:57:25;48.63;;;26.77;;
81701;SDS011;71115;52.150;4.510;2023-09-18T03:59:52;34.35;;;18.67;;
81701;SDS011;71115;52.150;4.510;2023-09-18T04:02:18;37.63;;;21.85;;
81701;SDS011;71115;52.150;4.510;2023-09-18T04:04:44;25.00;;;17.30;;
81701;SDS011;71115;52.150;4.510;2023-09-18T04:07:10;43.22;;;22.85;;
81701;SDS011;71115;52.150;4.510;2023-09-18T04:12:03;41.85;;;22.10;;
81701;SDS011;71115;52.150;4.510;2023-09-18T04:14:30;41.03;;;21.08;;
81701;SDS011;71115;52.150;4.510;2023-09-18T04:16:57;38.40;;;21.90;;
81701;SDS011;71115;52.150;4.510;2023-09-18T04:19:23;41.75;;;20.63;;
81701;SDS011;71115;52.150;4.510;2023-09-18T04:21:49;35.72;;;18.38;;
81701;SDS011;71115;52.150;4.510;2023-09-18T04:24:15;33.47;;;17.02;;
81701;SDS011;71115;52.150;4.510;2023-09-18T04:26:42;28.67;;;16.33;;
81701;SDS011;71115;52.150;4.510;2023-09-18T04:29:08;30.88;;;15.77;;
81701;SDS011;71115;52.150;4.510;2023-09-18T04:34:00;22.33;;;13.82;;
81701;SDS011;71115;52.150;4.510;2023-09-18T04:36:27;24.85;;;13.38;;
81701;SDS011;71115;52.150;4.510;2023-09-18T04:38:53;24.88;;;13.75;;
81701;SDS011;71115;52.150;4.510;2023-09-18T04:41:19;22.23;;;11.98;;
81701;SDS011;71115;52.150;4.510;2023-09-18T04:43:45;21.08;;;11.85;;
81701;SDS011;71115;52.150;4.510;2023-09-18T04:46:11;20.60;;;11.13;;
81701;SDS011;71115;52.150;4.510;2023-09-18T04:48:37;18.88;;;9.93;;
81701;SDS011;71115;52.150;4.510;2023-09-18T04:51:03;18.55;;;10.93;;
81701;SDS011;71115;52.150;4.510;2023-09-18T04:53:29;21.50;;;9.82;;
81701;SDS011;71115;52.150;4.510;2023-09-18T04:55:56;21.02;;;10.30;;
81701;SDS011;71115;52.150;4.510;2023-09-18T04:58:22;19.77;;;10.18;;
81701;SDS011;71115;52.150;4.510;2023-09-18T05:00:57;23.02;;;11.73;;
81701;SDS011;71115;52.150;4.510;2023-09-18T05:03:24;22.85;;;10.93;;
81701;SDS011;71115;52.150;4.510;2023-09-18T05:05:51;18.58;;;9.23;;
81701;SDS011;71115;52.150;4.510;2023-09-18T05:08:20;17.05;;;9.90;;
81701;SDS011;71115;52.150;4.510;2023-09-18T05:10:47;19.45;;;9.57;;
81701;SDS011;71115;52.150;4.510;2023-09-18T05:13:13;17.13;;;9.82;;
81701;SDS011;71115;52.150;4.510;2023-09-18T05:15:42;18.45;;;10.60;;
81701;SDS011;71115;52.150;4.510;2023-09-18T05:18:11;11.73;;;8.10;;
81701;SDS011;71115;52.150;4.510;2023-09-18T05:20:38;18.20;;;9.63;;
81701;SDS011;71115;52.150;4.510;2023-09-18T05:23:04;16.83;;;10.18;;
81701;SDS011;71115;52.150;4.510;2023-09-18T05:25:30;19.05;;;8.30;;
81701;SDS011;71115;52.150;4.510;2023-09-18T05:27:58;22.90;;;12.07;;
81701;SDS011;71115;52.150;4.510;2023-09-18T05:30:29;23.52;;;12.50;;
81701;SDS011;71115;52.150;4.510;2023-09-18T05:32:57;23.17;;;11.38;;
81701;SDS011;71115;52.150;4.510;2023-09-18T05:35:29;24.80;;;12.55;;
81701;SDS011;71115;52.150;4.510;2023-09-18T05:37:55;21.08;;;11.35;;
81701;SDS011;71115;52.150;4.510;2023-09-18T05:40:23;25.38;;;12.80;;
81701;SDS011;71115;52.150;4.510;2023-09-18T05:42:51;30.15;;;11.57;;
81701;SDS011;71115;52.150;4.510;2023-09-18T05:45:17;24.52;;;12.82;;
81701;SDS011;71115;52.150;4.510;2023-09-18T05:47:43;25.60;;;12.73;;
81701;SDS011;71115;52.150;4.510;2023-09-18T05:50:11;22.90;;;12.35;;
81701;SDS011;71115;52.150;4.510;2023-09-18T05:52:41;21.23;;;11.38;;
81701;SDS011;71115;52.150;4.510;2023-09-18T05:55:07;16.50;;;9.25;;
81701;SDS011;71115;52.150;4.510;2023-09-18T05:57:34;17.80;;;10.10;;
81701;SDS011;71115;52.150;4.510;2023-09-18T06:00:00;17.25;;;8.75;;
81701;SDS011;71115;52.150;4.510;2023-09-18T06:02:27;17.92;;;9.80;;
81701;SDS011;71115;52.150;4.510;2023-09-18T06:04:56;15.90;;;10.15;;
81701;SDS011;71115;52.150;4.510;2023-09-18T06:07:25;18.13;;;10.52;;
81701;SDS011;71115;52.150;4.510;2023-09-18T06:09:51;19.67;;;10.55;;
81701;SDS011;71115;52.150;4.510;2023-09-18T06:12:17;19.70;;;9.60;;
81701;SDS011;71115;52.150;4.510;2023-09-18T06:14:46;17.17;;;9.45;;
81701;SDS011;71115;52.150;4.510;2023-09-18T06:17:13;15.98;;;9.98;;
81701;SDS011;71115;52.150;4.510;2023-09-18T06:19:40;17.40;;;9.98;;
81701;SDS011;71115;52.150;4.510;2023-09-18T06:22:06;21.30;;;11.43;;
81701;SDS011;71115;52.150;4.510;2023-09-18T06:24:33;19.23;;;10.82;;
81701;SDS011;71115;52.150;4.510;2023-09-18T06:26:59;17.45;;;9.25;;
81701;SDS011;71115;52.150;4.510;2023-09-18T06:29:25;17.55;;;10.82;;
81701;SDS011;71115;52.150;4.510;2023-09-18T06:31:51;17.80;;;11.02;;
81701;SDS011;71115;52.150;4.510;2023-09-18T06:34:17;24.65;;;11.63;;
81701;SDS011;71115;52.150;4.510;2023-09-18T06:36:43;18.85;;;10.48;;
81701;SDS011;71115;52.150;4.510;2023-09-18T06:39:09;22.88;;;13.10;;
81701;SDS011;71115;52.150;4.510;2023-09-18T06:41:35;25.40;;;13.18;;
81701;SDS011;71115;52.150;4.510;2023-09-18T06:44:02;26.00;;;13.57;;
81701;SDS011;71115;52.150;4.510;2023-09-18T06:46:31;20.05;;;12.65;;
81701;SDS011;71115;52.150;4.510;2023-09-18T06:48:57;17.83;;;10.40;;
81701;SDS011;71115;52.150;4.510;2023-09-18T06:51:25;26.50;;;15.02;;
81701;SDS011;71115;52.150;4.510;2023-09-18T06:53:51;19.52;;;11.65;;
81701;SDS011;71115;52.150;4.510;2023-09-18T06:56:17;17.55;;;9.55;;
81701;SDS011;71115;52.150;4.510;2023-09-18T06:58:43;19.80;;;12.05;;
81701;SDS011;71115;52.150;4.510;2023-09-18T07:01:09;17.67;;;10.98;;
81701;SDS011;71115;52.150;4.510;2023-09-18T07:03:35;21.63;;;11.20;;
81701;SDS011;71115;52.150;4.510;2023-09-18T07:06:02;21.38;;;12.15;;
81701;SDS011;71115;52.150;4.510;2023-09-18T07:08:29;15.30;;;9.07;;
81701;SDS011;71115;52.150;4.510;2023-09-18T07:10:56;16.98;;;9.40;;
81701;SDS011;71115;52.150;4.510;2023-09-18T07:13:22;15.77;;;10.75;;
81701;SDS011;71115;52.150;4.510;2023-09-18T07:15:48;19.70;;;9.30;;
81701;SDS011;71115;52.150;4.510;2023-09-18T07:18:14;14.70;;;5.63;;
81701;SDS011;71115;52.150;4.510;2023-09-18T07:20:40;14.55;;;8.65;;
81701;SDS011;71115;52.150;4.510;2023-09-18T07:23:06;14.02;;;8.40;;
81701;SDS011;71115;52.150;4.510;2023-09-18T07:25:32;11.77;;;7.20;;
81701;SDS011;71115;52.150;4.510;2023-09-18T07:27:58;11.20;;;5.45;;
81701;SDS011;71115;52.150;4.510;2023-09-18T07:30:24;10.15;;;5.50;;
81701;SDS011;71115;52.150;4.510;2023-09-18T07:32:54;11.38;;;5.10;;
81701;SDS011;71115;52.150;4.510;2023-09-18T07:35:23;9.63;;;5.20;;
81701;SDS011;71115;52.150;4.510;2023-09-18T07:37:49;11.02;;;5.30;;
81701;SDS011;71115;52.150;4.510;2023-09-18T07:40:15;8.55;;;3.88;;
81701;SDS011;71115;52.150;4.510;2023-09-18T07:42:41;13.18;;;5.32;;
81701;SDS011;71115;52.150;4.510;2023-09-18T07:45:10;8.65;;;4.00;;
81701;SDS011;71115;52.150;4.510;2023-09-18T07:47:36;9.93;;;4.60;;
81701;SDS011;71115;52.150;4.510;2023-09-18T07:50:03;8.32;;;4.05;;
81701;SDS011;71115;52.150;4.510;2023-09-18T07:52:29;11.90;;;4.18;;
81701;SDS011;71115;52.150;4.510;2023-09-18T07:54:56;6.78;;;4.18;;
81701;SDS011;71115;52.150;4.510;2023-09-18T07:57:25;7.10;;;3.58;;
81701;SDS011;71115;52.150;4.510;2023-09-18T07:59:57;5.50;;;3.08;;
81701;SDS011;71115;52.150;4.510;2023-09-18T08:02:24;7.38;;;3.10;;
81701;SDS011;71115;52.150;4.510;2023-09-18T08:04:50;5.43;;;2.70;;
81701;SDS011;71115;52.150;4.510;2023-09-18T08:07:18;13.70;;;3.33;;
81701;SDS011;71115;52.150;4.510;2023-09-18T08:09:44;6.15;;;2.95;;
81701;SDS011;71115;52.150;4.510;2023-09-18T08:12:12;7.22;;;3.10;;
81701;SDS011;71115;52.150;4.510;2023-09-18T08:17:04;6.20;;;2.38;;
81701;SDS011;71115;52.150;4.510;2023-09-18T08:19:32;5.53;;;2.22;;
81701;SDS011;71115;52.150;4.510;2023-09-18T08:24:29;6.07;;;2.28;;
81701;SDS011;71115;52.150;4.510;2023-09-18T08:29:21;4.85;;;1.92;;
81701;SDS011;71115;52.150;4.510;2023-09-18T08:31:48;3.80;;;1.50;;
81701;SDS011;71115;52.150;4.510;2023-09-18T08:34:15;5.43;;;2.00;;
81701;SDS011;71115;52.150;4.510;2023-09-18T08:36:41;5.70;;;2.00;;
81701;SDS011;71115;52.150;4.510;2023-09-18T08:39:07;5.07;;;1.77;;
81701;SDS011;71115;52.150;4.510;2023-09-18T08:41:34;4.57;;;1.73;;
81701;SDS011;71115;52.150;4.510;2023-09-18T08:44:03;6.72;;;2.50;;
81701;SDS011;71115;52.150;4.510;2023-09-18T08:48:56;3.65;;;1.67;;
81701;SDS011;71115;52.150;4.510;2023-09-18T08:51:23;3.92;;;1.95;;
81701;SDS011;71115;52.150;4.510;2023-09-18T08:53:49;5.32;;;2.60;;
81701;SDS011;71115;52.150;4.510;2023-09-18T08:56:15;6.35;;;2.42;;
81701;SDS011;71115;52.150;4.510;2023-09-18T08:58:43;4.72;;;2.67;;
81701;SDS011;71115;52.150;4.510;2023-09-18T09:01:09;6.35;;;2.78;;
81701;SDS011;71115;52.150;4.510;2023-09-18T09:03:39;4.97;;;2.42;;
81701;SDS011;71115;52.150;4.510;2023-09-18T09:06:05;6.50;;;2.20;;
81701;SDS011;71115;52.150;4.510;2023-09-18T09:08:32;6.03;;;2.53;;
81701;SDS011;71115;52.150;4.510;2023-09-18T09:10:58;5.95;;;2.17;;
81701;SDS011;71115;52.150;4.510;2023-09-18T09:15:54;3.95;;;2.28;;
81701;SDS011;71115;52.150;4.510;2023-09-18T09:18:27;7.25;;;1.95;;
81701;SDS011;71115;52.150;4.510;2023-09-18T09:20:57;4.57;;;1.95;;
81701;SDS011;71115;52.150;4.510;2023-09-18T09:23:28;6.60;;;2.10;;
81701;SDS011;71115;52.150;4.510;2023-09-18T09:26:12;10.18;;;2.17;;
81701;SDS011;71115;52.150;4.510;2023-09-18T09:28:38;5.20;;;2.53;;
81701;SDS011;71115;52.150;4.510;2023-09-18T09:31:04;4.85;;;2.60;;
81701;SDS011;71115;52.150;4.510;2023-09-18T09:33:30;3.50;;;2.03;;
81701;SDS011;71115;52.150;4.510;2023-09-18T09:35:57;3.55;;;2.10;;
81701;SDS011;71115;52.150;4.510;2023-09-18T09:38:30;5.38;;;2.17;;
81701;SDS011;71115;52.150;4.510;2023-09-18T09:41:02;3.17;;;1.83;;
81701;SDS011;71115;52.150;4.510;2023-09-18T09:43:31;8.43;;;2.75;;
81701;SDS011;71115;52.150;4.510;2023-09-18T09:45:59;5.00;;;2.53;;
81701;SDS011;71115;52.150;4.510;2023-09-18T09:48:25;10.68;;;3.08;;
81701;SDS011;71115;52.150;4.510;2023-09-18T09:50:51;5.82;;;2.53;;
81701;SDS011;71115;52.150;4.510;2023-09-18T09:53:20;3.38;;;1.48;;
81701;SDS011;71115;52.150;4.510;2023-09-18T09:56:06;6.60;;;2.20;;
81701;SDS011;71115;52.150;4.510;2023-09-18T09:58:32;3.28;;;1.95;;
81701;SDS011;71115;52.150;4.510;2023-09-18T10:00:58;5.00;;;2.60;;
81701;SDS011;71115;52.150;4.510;2023-09-18T10:03:28;3.95;;;2.15;;
81701;SDS011;71115;52.150;4.510;2023-09-18T10:05:54;3.92;;;2.25;;
81701;SDS011;71115;52.150;4.510;2023-09-18T10:08:23;4.55;;;2.28;;
81701;SDS011;71115;52.150;4.510;2023-09-18T10:10:52;7.65;;;2.53;;
81701;SDS011;71115;52.150;4.510;2023-09-18T10:13:23;7.68;;;2.70;;
81701;SDS011;71115;52.150;4.510;2023-09-18T10:15:52;3.92;;;1.58;;
81701;SDS011;71115;52.150;4.510;2023-09-18T10:20:44;6.20;;;3.58;;
81701;SDS011;71115;52.150;4.510;2023-09-18T10:23:19;5.22;;;2.05;;
81701;SDS011;71115;52.150;4.510;2023-09-18T10:25:50;5.70;;;2.55;;
81701;SDS011;71115;52.150;4.510;2023-09-18T10:28:17;5.85;;;2.47;;
81701;SDS011;71115;52.150;4.510;2023-09-18T10:30:43;5.70;;;2.63;;
81701;SDS011;71115;52.150;4.510;2023-09-18T10:33:09;5.47;;;2.25;;
81701;SDS011;71115;52.150;4.510;2023-09-18T10:35:35;4.03;;;2.15;;
81701;SDS011;71115;52.150;4.510;2023-09-18T10:38:02;4.05;;;2.47;;
81701;SDS011;71115;52.150;4.510;2023-09-18T10:40:31;4.65;;;2.25;;
81701;SDS011;71115;52.150;4.510;2023-09-18T10:42:58;7.65;;;2.50;;
81701;SDS011;71115;52.150;4.510;2023-09-18T10:45:28;9.07;;;2.63;;
81701;SDS011;71115;52.150;4.510;2023-09-18T10:47:54;9.13;;;2.40;;
81701;SDS011;71115;52.150;4.510;2023-09-18T10:50:24;6.57;;;2.53;;
81701;SDS011;71115;52.150;4.510;2023-09-18T10:52:50;5.93;;;2.53;;
81701;SDS011;71115;52.150;4.510;2023-09-18T10:57:55;6.95;;;2.83;;
81701;SDS011;71115;52.150;4.510;2023-09-18T11:00:24;5.57;;;2.33;;
81701;SDS011;71115;52.150;4.510;2023-09-18T11:02:54;5.13;;;1.77;;
81701;SDS011;71115;52.150;4.510;2023-09-18T11:05:32;3.90;;;2.33;;
81701;SDS011;71115;52.150;4.510;2023-09-18T11:10:54;6.60;;;2.67;;
81701;SDS011;71115;52.150;4.510;2023-09-18T11:13:39;4.05;;;1.55;;
81701;SDS011;71115;52.150;4.510;2023-09-18T11:18:41;5.53;;;2.17;;
81701;SDS011;71115;52.150;4.510;2023-09-18T11:21:07;5.28;;;2.00;;
81701;SDS011;71115;52.150;4.510;2023-09-18T11:23:34;5.05;;;1.90;;
81701;SDS011;71115;52.150;4.510;2023-09-18T11:26:08;4.35;;;1.88;;
81701;SDS011;71115;52.150;4.510;2023-09-18T11:28:34;4.00;;;1.70;;
81701;SDS011;71115;52.150;4.510;2023-09-18T11:31:02;4.30;;;1.98;;
81701;SDS011;71115;52.150;4.510;2023-09-18T11:35:54;8.45;;;2.63;;
81701;SDS011;71115;52.150;4.510;2023-09-18T11:38:21;5.15;;;1.75;;
81701;SDS011;71115;52.150;4.510;2023-09-18T11:40:48;3.30;;;1.55;;
81701;SDS011;71115;52.150;4.510;2023-09-18T11:43:27;3.90;;;1.67;;
81701;SDS011;71115;52.150;4.510;2023-09-18T11:45:59;5.32;;;1.77;;
81701;SDS011;71115;52.150;4.510;2023-09-18T11:48:28;3.80;;;1.83;;
81701;SDS011;71115;52.150;4.510;2023-09-18T11:50:57;5.88;;;2.00;;
81701;SDS011;71115;52.150;4.510;2023-09-18T11:53:24;6.00;;;1.80;;
81701;SDS011;71115;52.150;4.510;2023-09-18T11:55:52;6.78;;;1.75;;
81701;SDS011;71115;52.150;4.510;2023-09-18T11:58:18;4.93;;;1.90;;
81701;SDS011;71115;52.150;4.510;2023-09-18T12:00:48;5.03;;;2.00;;
81701;SDS011;71115;52.150;4.510;2023-09-18T12:05:45;4.10;;;1.45;;
81701;SDS011;71115;52.150;4.510;2023-09-18T12:08:13;5.20;;;2.00;;
81701;SDS011;71115;52.150;4.510;2023-09-18T12:10:39;6.30;;;2.40;;
81701;SDS011;71115;52.150;4.510;2023-09-18T12:13:06;5.15;;;1.80;;
81701;SDS011;71115;52.150;4.510;2023-09-18T12:15:36;6.13;;;2.17;;
81701;SDS011;71115;52.150;4.510;2023-09-18T12:18:05;7.90;;;1.90;;
81701;SDS011;71115;52.150;4.510;2023-09-18T12:20:31;6.28;;;1.98;;
81701;SDS011;71115;52.150;4.510;2023-09-18T12:22:59;3.83;;;2.10;;
81701;SDS011;71115;52.150;4.510;2023-09-18T12:25:27;4.53;;;2.25;;
81701;SDS011;71115;52.150;4.510;2023-09-18T12:27:53;4.28;;;2.42;;
81701;SDS011;71115;52.150;4.510;2023-09-18T12:30:20;5.82;;;1.73;;
81701;SDS011;71115;52.150;4.510;2023-09-18T12:32:47;4.60;;;2.72;;
81701;SDS011;71115;52.150;4.510;2023-09-18T12:35:14;5.43;;;1.80;;
81701;SDS011;71115;52.150;4.510;2023-09-18T12:37:40;5.88;;;4.05;;
81701;SDS011;71115;52.150;4.510;2023-09-18T12:42:38;9.68;;;2.40;;
81701;SDS011;71115;52.150;4.510;2023-09-18T12:45:08;4.70;;;2.88;;
81701;SDS011;71115;52.150;4.510;2023-09-18T12:47:35;4.97;;;2.50;;
81701;SDS011;71115;52.150;4.510;2023-09-18T12:50:04;6.43;;;2.53;;
81701;SDS011;71115;52.150;4.510;2023-09-18T12:52:31;4.25;;;2.28;;
81701;SDS011;71115;52.150;4.510;2023-09-18T12:54:58;5.63;;;2.42;;
81701;SDS011;71115;52.150;4.510;2023-09-18T12:57:26;4.18;;;2.55;;
81701;SDS011;71115;52.150;4.510;2023-09-18T12:59:53;4.82;;;3.10;;
81701;SDS011;71115;52.150;4.510;2023-09-18T13:02:20;4.45;;;2.00;;
81701;SDS011;71115;52.150;4.510;2023-09-18T13:04:53;4.25;;;2.30;;
81701;SDS011;71115;52.150;4.510;2023-09-18T13:07:20;7.68;;;2.95;;
81701;SDS011;71115;52.150;4.510;2023-09-18T13:12:25;8.30;;;2.65;;
81701;SDS011;71115;52.150;4.510;2023-09-18T13:14:57;6.05;;;2.10;;
81701;SDS011;71115;52.150;4.510;2023-09-18T13:17:51;4.30;;;2.17;;
81701;SDS011;71115;52.150;4.510;2023-09-18T13:20:20;7.00;;;2.17;;
81701;SDS011;71115;52.150;4.510;2023-09-18T13:22:49;5.50;;;2.17;;
81701;SDS011;71115;52.150;4.510;2023-09-18T13:25:19;4.72;;;2.53;;
81701;SDS011;71115;52.150;4.510;2023-09-18T13:27:46;4.78;;;2.28;;
81701;SDS011;71115;52.150;4.510;2023-09-18T13:30:12;9.63;;;2.17;;
81701;SDS011;71115;52.150;4.510;2023-09-18T13:32:42;7.03;;;1.88;;
81701;SDS011;71115;52.150;4.510;2023-09-18T13:35:09;17.92;;;2.42;;
81701;SDS011;71115;52.150;4.510;2023-09-18T13:37:36;6.43;;;2.15;;
81701;SDS011;71115;52.150;4.510;2023-09-18T13:42:31;8.88;;;2.00;;
81701;SDS011;71115;52.150;4.510;2023-09-18T13:44:58;3.25;;;1.70;;
81701;SDS011;71115;52.150;4.510;2023-09-18T13:47:26;3.88;;;1.55;;
81701;SDS011;71115;52.150;4.510;2023-09-18T13:49:52;13.18;;;2.80;;
81701;SDS011;71115;52.150;4.510;2023-09-18T13:52:21;5.72;;;2.42;;
81701;SDS011;71115;52.150;4.510;2023-09-18T13:54:47;5.35;;;2.15;;
81701;SDS011;71115;52.150;4.510;2023-09-18T13:57:16;5.40;;;2.33;;
81701;SDS011;71115;52.150;4.510;2023-09-18T13:59:43;6.78;;;2.30;;
81701;SDS011;71115;52.150;4.510;2023-09-18T14:02:10;4.57;;;1.75;;
81701;SDS011;71115;52.150;4.510;2023-09-18T14:04:36;6.57;;;2.42;;
81701;SDS011;71115;52.150;4.510;2023-09-18T14:07:02;6.68;;;2.13;;
81701;SDS011;71115;52.150;4.510;2023-09-18T14:09:28;2.65;;;1.58;;
81701;SDS011;71115;52.150;4.510;2023-09-18T14:11:55;3.95;;;2.38;;
81701;SDS011;71115;52.150;4.510;2023-09-18T14:14:24;3.28;;;1.50;;
81701;SDS011;71115;52.150;4.510;2023-09-18T14:16:50;4.90;;;2.00;;
81701;SDS011;71115;52.150;4.510;2023-09-18T14:19:17;3.38;;;1.77;;
81701;SDS011;71115;52.150;4.510;2023-09-18T14:21:43;5.15;;;2.50;;
81701;SDS011;71115;52.150;4.510;2023-09-18T14:24:09;8.30;;;2.90;;
81701;SDS011;71115;52.150;4.510;2023-09-18T14:26:36;7.35;;;3.10;;
81701;SDS011;71115;52.150;4.510;2023-09-18T14:29:09;4.22;;;1.92;;
81701;SDS011;71115;52.150;4.510;2023-09-18T14:31:38;4.65;;;2.25;;
81701;SDS011;71115;52.150;4.510;2023-09-18T14:34:04;5.53;;;2.28;;
81701;SDS011;71115;52.150;4.510;2023-09-18T14:36:31;9.80;;;2.30;;
81701;SDS011;71115;52.150;4.510;2023-09-18T14:38:59;6.88;;;2.53;;
81701;SDS011;71115;52.150;4.510;2023-09-18T14:41:25;3.90;;;2.10;;
81701;SDS011;71115;52.150;4.510;2023-09-18T14:43:51;7.82;;;2.25;;
81701;SDS011;71115;52.150;4.510;2023-09-18T14:46:17;3.95;;;1.63;;
81701;SDS011;71115;52.150;4.510;2023-09-18T14:48:43;3.75;;;1.85;;
81701;SDS011;71115;52.150;4.510;2023-09-18T14:51:09;5.68;;;1.80;;
81701;SDS011;71115;52.150;4.510;2023-09-18T14:53:36;4.70;;;1.90;;
81701;SDS011;71115;52.150;4.510;2023-09-18T14:56:02;5.15;;;1.58;;
81701;SDS011;71115;52.150;4.510;2023-09-18T14:58:32;13.68;;;1.90;;
81701;SDS011;71115;52.150;4.510;2023-09-18T15:00:58;6.05;;;1.85;;
81701;SDS011;71115;52.150;4.510;2023-09-18T15:03:25;4.85;;;1.40;;
81701;SDS011;71115;52.150;4.510;2023-09-18T15:05:51;7.88;;;1.55;;
81701;SDS011;71115;52.150;4.510;2023-09-18T15:08:18;5.50;;;1.60;;
81701;SDS011;71115;52.150;4.510;2023-09-18T15:10:45;4.32;;;1.52;;
81701;SDS011;71115;52.150;4.510;2023-09-18T15:15:38;3.83;;;1.13;;
81701;SDS011;71115;52.150;4.510;2023-09-18T15:18:05;6.70;;;1.67;;
81701;SDS011;71115;52.150;4.510;2023-09-18T15:20:31;7.35;;;1.20;;
81701;SDS011;71115;52.150;4.510;2023-09-18T15:22:57;3.80;;;1.23;;
81701;SDS011;71115;52.150;4.510;2023-09-18T15:25:24;4.50;;;1.27;;
81701;SDS011;71115;52.150;4.510;2023-09-18T15:27:50;11.18;;;1.85;;
81701;SDS011;71115;52.150;4.510;2023-09-18T15:30:16;1.98;;;0.80;;
81701;SDS011;71115;52.150;4.510;2023-09-18T15:33:00;5.57;;;1.50;;